sensor_id;sensor_type;location;lat;lon;timestamp;pressure;altitude;pressure_sealevel;temperature;humidity
65754;BME280;52488;47.502;18.940;2023-02-26T00:00:25;96859.66;;;2.14;76.00
65754;BME280;52488;47.502;18.940;2023-02-26T00:01:30;96854.56;;;2.18;75.92
65754;BME280;52488;47.502;18.940;2023-02-26T00:02:34;96840.78;;;2.24;75.75
65754;BME280;52488;47.502;18.940;2023-02-26T00:03:38;96844.59;;;2.21;75.76
65754;BME280;52488;47.502;18.940;2023-02-26T00:04:42;96847.72;;;2.17;75.97
65754;BME280;52488;47.502;18.940;2023-02-26T00:05:45;96848.44;;;2.18;75.74
65754;BME280;52488;47.502;18.940;2023-02-26T00:06:48;96858.16;;;2.21;75.50
65754;BME280;52488;47.502;18.940;2023-02-26T00:08:01;96869.06;;;2.13;75.79
65754;BME280;52488;47.502;18.940;2023-02-26T00:09:07;96854.25;;;2.14;75.95
65754;BME280;52488;47.502;18.940;2023-02-26T00:10:12;96852.34;;;2.24;75.09
65754;BME280;52488;47.502;18.940;2023-02-26T00:11:18;96849.72;;;2.17;75.25
65754;BME280;52488;47.502;18.940;2023-02-26T00:12:22;96853.84;;;2.18;75.30
65754;BME280;52488;47.502;18.940;2023-02-26T00:13:25;96861.66;;;2.14;75.51
65754;BME280;52488;47.502;18.940;2023-02-26T00:14:28;96860.56;;;2.17;75.39
65754;BME280;52488;47.502;18.940;2023-02-26T00:15:31;96854.50;;;2.26;75.04
65754;BME280;52488;47.502;18.940;2023-02-26T00:16:35;96842.56;;;2.29;74.52
65754;BME280;52488;47.502;18.940;2023-02-26T00:18:06;96842.31;;;2.17;74.81
65754;BME280;52488;47.502;18.940;2023-02-26T00:19:12;96848.09;;;2.14;75.13
65754;BME280;52488;47.502;18.940;2023-02-26T00:20:16;96858.22;;;2.13;75.15
65754;BME280;52488;47.502;18.940;2023-02-26T00:21:21;96864.22;;;2.11;75.17
65754;BME280;52488;47.502;18.940;2023-02-26T00:22:24;96861.88;;;2.08;75.28
65754;BME280;52488;47.502;18.940;2023-02-26T00:23:28;96860.50;;;1.99;75.70
65754;BME280;52488;47.502;18.940;2023-02-26T00:24:31;96853.81;;;2.00;75.96
65754;BME280;52488;47.502;18.940;2023-02-26T00:25:34;96848.94;;;1.99;75.98
65754;BME280;52488;47.502;18.940;2023-02-26T00:26:37;96838.44;;;2.03;75.76
65754;BME280;52488;47.502;18.940;2023-02-26T00:27:40;96830.66;;;2.07;75.59
65754;BME280;52488;47.502;18.940;2023-02-26T00:28:44;96822.84;;;2.11;75.24
65754;BME280;52488;47.502;18.940;2023-02-26T00:29:47;96808.56;;;2.10;75.00
65754;BME280;52488;47.502;18.940;2023-02-26T00:30:51;96808.66;;;2.03;75.31
65754;BME280;52488;47.502;18.940;2023-02-26T00:31:54;96801.78;;;2.02;75.22
65754;BME280;52488;47.502;18.940;2023-02-26T00:32:57;96794.78;;;1.99;75.61
65754;BME280;52488;47.502;18.940;2023-02-26T00:34:01;96786.25;;;2.02;75.33
65754;BME280;52488;47.502;18.940;2023-02-26T00:35:11;96786.81;;;2.01;75.19
65754;BME280;52488;47.502;18.940;2023-02-26T00:38:05;96806.09;;;2.05;74.97
65754;BME280;52488;47.502;18.940;2023-02-26T00:39:23;96815.37;;;1.94;75.37
65754;BME280;52488;47.502;18.940;2023-02-26T00:40:43;96813.09;;;1.91;75.68
65754;BME280;52488;47.502;18.940;2023-02-26T00:41:47;96813.97;;;1.93;75.70
65754;BME280;52488;47.502;18.940;2023-02-26T00:42:50;96812.31;;;1.98;75.60
65754;BME280;52488;47.502;18.940;2023-02-26T00:43:54;96817.56;;;1.96;75.18
65754;BME280;52488;47.502;18.940;2023-02-26T00:44:57;96818.44;;;1.98;75.23
65754;BME280;52488;47.502;18.940;2023-02-26T00:47:29;96816.28;;;1.97;74.74
65754;BME280;52488;47.502;18.940;2023-02-26T00:51:22;96811.44;;;1.95;75.06
65754;BME280;52488;47.502;18.940;2023-02-26T00:54:25;96799.47;;;1.98;74.24
65754;BME280;52488;47.502;18.940;2023-02-26T00:55:28;96812.88;;;1.96;74.12
65754;BME280;52488;47.502;18.940;2023-02-26T00:56:32;96808.16;;;1.97;73.98
65754;BME280;52488;47.502;18.940;2023-02-26T00:57:34;96810.53;;;1.93;74.28
65754;BME280;52488;47.502;18.940;2023-02-26T00:58:38;96816.75;;;1.85;74.83
65754;BME280;52488;47.502;18.940;2023-02-26T00:59:41;96830.94;;;1.94;74.22
65754;BME280;52488;47.502;18.940;2023-02-26T01:00:45;96833.38;;;1.82;74.65
65754;BME280;52488;47.502;18.940;2023-02-26T01:01:48;96838.78;;;1.82;74.93
65754;BME280;52488;47.502;18.940;2023-02-26T01:02:52;96840.97;;;1.83;74.83
65754;BME280;52488;47.502;18.940;2023-02-26T01:03:55;96828.50;;;1.80;74.81
65754;BME280;52488;47.502;18.940;2023-02-26T01:04:58;96828.34;;;1.78;74.88
65754;BME280;52488;47.502;18.940;2023-02-26T01:06:02;96829.59;;;1.77;74.94
65754;BME280;52488;47.502;18.940;2023-02-26T01:07:08;96825.66;;;1.78;74.78
65754;BME280;52488;47.502;18.940;2023-02-26T01:08:19;96814.81;;;1.78;74.74
65754;BME280;52488;47.502;18.940;2023-02-26T01:09:33;96824.16;;;1.85;74.35
65754;BME280;52488;47.502;18.940;2023-02-26T01:10:37;96829.94;;;1.81;74.58
65754;BME280;52488;47.502;18.940;2023-02-26T01:11:41;96829.59;;;1.77;74.81
65754;BME280;52488;47.502;18.940;2023-02-26T01:12:44;96828.91;;;1.77;74.88
65754;BME280;52488;47.502;18.940;2023-02-26T01:13:47;96832.75;;;1.91;74.13
65754;BME280;52488;47.502;18.940;2023-02-26T01:14:50;96831.00;;;1.86;74.19
65754;BME280;52488;47.502;18.940;2023-02-26T01:15:59;96839.28;;;1.88;74.15
65754;BME280;52488;47.502;18.940;2023-02-26T01:18:32;96855.44;;;1.78;74.33
65754;BME280;52488;47.502;18.940;2023-02-26T01:20:50;96856.88;;;1.79;74.35
65754;BME280;52488;47.502;18.940;2023-02-26T01:22:03;96863.88;;;1.82;74.35
65754;BME280;52488;47.502;18.940;2023-02-26T01:23:14;96854.50;;;1.83;73.97
65754;BME280;52488;47.502;18.940;2023-02-26T01:24:20;96849.69;;;1.74;74.63
65754;BME280;52488;47.502;18.940;2023-02-26T01:26:37;96839.00;;;1.76;74.37
65754;BME280;52488;47.502;18.940;2023-02-26T01:27:40;96841.56;;;1.74;74.52
65754;BME280;52488;47.502;18.940;2023-02-26T01:28:43;96830.72;;;1.74;74.58
65754;BME280;52488;47.502;18.940;2023-02-26T01:29:46;96832.00;;;1.73;74.56
65754;BME280;52488;47.502;18.940;2023-02-26T01:30:52;96837.56;;;1.75;74.48
65754;BME280;52488;47.502;18.940;2023-02-26T01:32:24;96831.34;;;1.90;73.40
65754;BME280;52488;47.502;18.940;2023-02-26T01:33:38;96829.56;;;1.85;73.36
65754;BME280;52488;47.502;18.940;2023-02-26T01:35:03;96833.00;;;1.85;73.44
65754;BME280;52488;47.502;18.940;2023-02-26T01:36:27;96830.28;;;1.85;73.15
65754;BME280;52488;47.502;18.940;2023-02-26T01:37:52;96818.50;;;1.91;72.93
65754;BME280;52488;47.502;18.940;2023-02-26T01:42:15;96818.97;;;1.79;73.35
65754;BME280;52488;47.502;18.940;2023-02-26T01:46:30;96810.44;;;1.83;73.39
65754;BME280;52488;47.502;18.940;2023-02-26T01:47:48;96799.59;;;1.83;73.32
65754;BME280;52488;47.502;18.940;2023-02-26T01:48:57;96802.75;;;1.72;73.67
65754;BME280;52488;47.502;18.940;2023-02-26T01:50:16;96809.28;;;1.69;74.12
65754;BME280;52488;47.502;18.940;2023-02-26T01:51:52;96809.50;;;1.63;74.30
65754;BME280;52488;47.502;18.940;2023-02-26T01:54:22;96815.31;;;1.59;74.69
65754;BME280;52488;47.502;18.940;2023-02-26T01:55:26;96813.53;;;1.54;74.73
65754;BME280;52488;47.502;18.940;2023-02-26T01:56:30;96823.37;;;1.67;74.61
65754;BME280;52488;47.502;18.940;2023-02-26T01:57:34;96825.19;;;1.65;74.27
65754;BME280;52488;47.502;18.940;2023-02-26T01:58:38;96832.94;;;1.68;74.03
65754;BME280;52488;47.502;18.940;2023-02-26T01:59:44;96840.94;;;1.58;74.44
65754;BME280;52488;47.502;18.940;2023-02-26T02:00:48;96844.44;;;1.51;74.91
65754;BME280;52488;47.502;18.940;2023-02-26T02:01:53;96859.75;;;1.49;75.15
65754;BME280;52488;47.502;18.940;2023-02-26T02:02:57;96861.53;;;1.54;75.19
65754;BME280;52488;47.502;18.940;2023-02-26T02:04:01;96860.78;;;1.61;75.15
65754;BME280;52488;47.502;18.940;2023-02-26T02:05:11;96860.94;;;1.63;75.20
65754;BME280;52488;47.502;18.940;2023-02-26T02:06:22;96858.25;;;1.63;75.05
65754;BME280;52488;47.502;18.940;2023-02-26T02:07:26;96865.16;;;1.56;75.49
65754;BME280;52488;47.502;18.940;2023-02-26T02:08:32;96866.75;;;1.59;75.07
65754;BME280;52488;47.502;18.940;2023-02-26T02:09:37;96863.81;;;1.65;74.99
65754;BME280;52488;47.502;18.940;2023-02-26T02:10:44;96856.19;;;1.71;74.72
65754;BME280;52488;47.502;18.940;2023-02-26T02:12:00;96849.75;;;1.67;74.70
65754;BME280;52488;47.502;18.940;2023-02-26T02:13:12;96843.59;;;1.66;74.83
65754;BME280;52488;47.502;18.940;2023-02-26T02:17:12;96823.09;;;1.55;75.34
65754;BME280;52488;47.502;18.940;2023-02-26T02:23:57;96832.09;;;1.58;75.31
65754;BME280;52488;47.502;18.940;2023-02-26T02:28:11;96858.69;;;1.52;75.61
65754;BME280;52488;47.502;18.940;2023-02-26T02:29:44;96853.06;;;1.50;75.53
65754;BME280;52488;47.502;18.940;2023-02-26T02:32:13;96850.78;;;1.46;76.05
65754;BME280;52488;47.502;18.940;2023-02-26T02:33:22;96855.84;;;1.42;76.00
65754;BME280;52488;47.502;18.940;2023-02-26T02:34:44;96863.75;;;1.48;75.90
65754;BME280;52488;47.502;18.940;2023-02-26T02:35:56;96872.06;;;1.42;75.93
65754;BME280;52488;47.502;18.940;2023-02-26T02:37:39;96872.12;;;1.35;76.51
65754;BME280;52488;47.502;18.940;2023-02-26T02:38:51;96880.75;;;1.41;76.26
65754;BME280;52488;47.502;18.940;2023-02-26T02:41:23;96887.25;;;1.38;76.78
65754;BME280;52488;47.502;18.940;2023-02-26T02:42:34;96888.69;;;1.39;76.60
65754;BME280;52488;47.502;18.940;2023-02-26T02:43:38;96887.97;;;1.38;76.76
65754;BME280;52488;47.502;18.940;2023-02-26T02:44:47;96879.69;;;1.36;77.09
65754;BME280;52488;47.502;18.940;2023-02-26T02:45:55;96878.63;;;1.31;77.33
65754;BME280;52488;47.502;18.940;2023-02-26T02:47:03;96880.69;;;1.48;76.69
65754;BME280;52488;47.502;18.940;2023-02-26T02:48:53;96878.75;;;1.41;76.70
65754;BME280;52488;47.502;18.940;2023-02-26T02:49:57;96885.22;;;1.46;76.47
65754;BME280;52488;47.502;18.940;2023-02-26T02:51:11;96888.47;;;1.44;76.53
65754;BME280;52488;47.502;18.940;2023-02-26T02:53:48;96891.28;;;1.29;77.20
65754;BME280;52488;47.502;18.940;2023-02-26T02:55:01;96898.47;;;1.34;77.10
65754;BME280;52488;47.502;18.940;2023-02-26T02:56:09;96893.38;;;1.38;76.85
65754;BME280;52488;47.502;18.940;2023-02-26T02:57:28;96896.84;;;1.31;77.10
65754;BME280;52488;47.502;18.940;2023-02-26T02:58:39;96892.88;;;1.32;77.24
65754;BME280;52488;47.502;18.940;2023-02-26T02:59:46;96900.63;;;1.36;77.27
65754;BME280;52488;47.502;18.940;2023-02-26T03:00:56;96894.84;;;1.31;77.33
65754;BME280;52488;47.502;18.940;2023-02-26T03:03:27;96888.78;;;1.23;77.75
65754;BME280;52488;47.502;18.940;2023-02-26T03:04:33;96891.28;;;1.21;77.92
65754;BME280;52488;47.502;18.940;2023-02-26T03:05:36;96898.87;;;1.23;77.86
65754;BME280;52488;47.502;18.940;2023-02-26T03:06:39;96915.47;;;1.19;77.92
65754;BME280;52488;47.502;18.940;2023-02-26T03:07:55;96920.72;;;1.17;78.09
65754;BME280;52488;47.502;18.940;2023-02-26T03:09:00;96921.75;;;1.29;77.76
65754;BME280;52488;47.502;18.940;2023-02-26T03:10:04;96919.22;;;1.31;77.68
65754;BME280;52488;47.502;18.940;2023-02-26T03:11:08;96912.72;;;1.27;77.68
65754;BME280;52488;47.502;18.940;2023-02-26T03:12:11;96912.56;;;1.25;77.92
65754;BME280;52488;47.502;18.940;2023-02-26T03:13:21;96904.09;;;1.21;77.97
65754;BME280;52488;47.502;18.940;2023-02-26T03:14:26;96897.47;;;1.14;78.38
65754;BME280;52488;47.502;18.940;2023-02-26T03:16:00;96899.81;;;1.18;78.34
65754;BME280;52488;47.502;18.940;2023-02-26T03:17:25;96892.22;;;1.16;78.55
65754;BME280;52488;47.502;18.940;2023-02-26T03:20:04;96887.66;;;1.26;77.88
65754;BME280;52488;47.502;18.940;2023-02-26T03:21:21;96889.13;;;1.20;78.34
65754;BME280;52488;47.502;18.940;2023-02-26T03:24:28;96902.88;;;1.14;78.69
65754;BME280;52488;47.502;18.940;2023-02-26T03:27:37;96890.06;;;1.15;78.80
65754;BME280;52488;47.502;18.940;2023-02-26T03:29:05;96907.94;;;1.10;79.03
65754;BME280;52488;47.502;18.940;2023-02-26T03:30:21;96908.31;;;1.07;79.34
65754;BME280;52488;47.502;18.940;2023-02-26T03:31:55;96908.66;;;1.11;79.25
65754;BME280;52488;47.502;18.940;2023-02-26T03:33:16;96918.44;;;1.06;79.38
65754;BME280;52488;47.502;18.940;2023-02-26T03:37:34;96919.13;;;1.07;79.25
65754;BME280;52488;47.502;18.940;2023-02-26T03:40:15;96923.06;;;1.13;79.07
65754;BME280;52488;47.502;18.940;2023-02-26T03:41:30;96914.22;;;1.20;79.04
65754;BME280;52488;47.502;18.940;2023-02-26T03:42:54;96915.44;;;1.27;78.51
65754;BME280;52488;47.502;18.940;2023-02-26T03:44:19;96921.44;;;1.18;78.72
65754;BME280;52488;47.502;18.940;2023-02-26T03:45:30;96935.34;;;1.14;78.80
65754;BME280;52488;47.502;18.940;2023-02-26T03:46:40;96941.09;;;1.11;79.07
65754;BME280;52488;47.502;18.940;2023-02-26T03:47:48;96934.81;;;1.08;79.09
65754;BME280;52488;47.502;18.940;2023-02-26T03:48:58;96932.09;;;1.08;79.05
65754;BME280;52488;47.502;18.940;2023-02-26T03:50:16;96929.97;;;1.07;79.03
65754;BME280;52488;47.502;18.940;2023-02-26T03:51:23;96928.87;;;1.02;79.23
65754;BME280;52488;47.502;18.940;2023-02-26T03:52:31;96935.56;;;1.01;79.59
65754;BME280;52488;47.502;18.940;2023-02-26T03:53:59;96934.28;;;1.02;79.60
65754;BME280;52488;47.502;18.940;2023-02-26T03:55:17;96940.41;;;1.02;79.87
65754;BME280;52488;47.502;18.940;2023-02-26T03:56:29;96943.69;;;1.01;80.18
65754;BME280;52488;47.502;18.940;2023-02-26T03:57:34;96943.13;;;1.02;80.11
65754;BME280;52488;47.502;18.940;2023-02-26T03:58:37;96949.25;;;1.03;80.13
65754;BME280;52488;47.502;18.940;2023-02-26T03:59:41;96941.69;;;1.01;80.24
65754;BME280;52488;47.502;18.940;2023-02-26T04:00:47;96931.41;;;1.00;80.28
65754;BME280;52488;47.502;18.940;2023-02-26T04:03:26;96918.22;;;1.12;79.38
65754;BME280;52488;47.502;18.940;2023-02-26T04:04:47;96904.53;;;1.02;79.80
65754;BME280;52488;47.502;18.940;2023-02-26T04:05:52;96895.00;;;1.01;80.06
65754;BME280;52488;47.502;18.940;2023-02-26T04:06:55;96892.09;;;0.99;80.21
65754;BME280;52488;47.502;18.940;2023-02-26T04:07:59;96896.25;;;1.00;80.27
65754;BME280;52488;47.502;18.940;2023-02-26T04:09:03;96904.34;;;1.00;80.33
65754;BME280;52488;47.502;18.940;2023-02-26T04:10:08;96909.75;;;1.00;80.33
65754;BME280;52488;47.502;18.940;2023-02-26T04:11:18;96906.69;;;1.03;80.12
65754;BME280;52488;47.502;18.940;2023-02-26T04:12:26;96906.53;;;1.01;80.12
65754;BME280;52488;47.502;18.940;2023-02-26T04:13:29;96910.31;;;0.98;80.35
65754;BME280;52488;47.502;18.940;2023-02-26T04:14:32;96911.59;;;0.97;80.70
65754;BME280;52488;47.502;18.940;2023-02-26T04:15:35;96915.72;;;0.98;80.83
65754;BME280;52488;47.502;18.940;2023-02-26T04:16:37;96900.94;;;0.99;80.72
65754;BME280;52488;47.502;18.940;2023-02-26T04:17:40;96899.69;;;1.00;80.51
65754;BME280;52488;47.502;18.940;2023-02-26T04:18:43;96906.91;;;0.98;80.33
65754;BME280;52488;47.502;18.940;2023-02-26T04:19:46;96911.44;;;0.95;80.58
65754;BME280;52488;47.502;18.940;2023-02-26T04:20:49;96917.34;;;0.94;80.78
65754;BME280;52488;47.502;18.940;2023-02-26T04:21:52;96923.47;;;0.94;80.94
65754;BME280;52488;47.502;18.940;2023-02-26T04:22:56;96929.63;;;0.95;81.01
65754;BME280;52488;47.502;18.940;2023-02-26T04:24:00;96941.88;;;0.96;81.06
65754;BME280;52488;47.502;18.940;2023-02-26T04:25:03;96941.88;;;0.96;81.24
65754;BME280;52488;47.502;18.940;2023-02-26T04:26:07;96938.47;;;0.95;81.14
65754;BME280;52488;47.502;18.940;2023-02-26T04:27:10;96951.78;;;0.93;81.15
65754;BME280;52488;47.502;18.940;2023-02-26T04:28:13;96962.59;;;0.93;81.44
65754;BME280;52488;47.502;18.940;2023-02-26T04:29:16;96966.59;;;0.92;81.39
65754;BME280;52488;47.502;18.940;2023-02-26T04:30:19;96982.25;;;0.94;81.39
65754;BME280;52488;47.502;18.940;2023-02-26T04:31:22;96979.38;;;0.92;81.57
65754;BME280;52488;47.502;18.940;2023-02-26T04:32:26;96978.66;;;0.91;81.64
65754;BME280;52488;47.502;18.940;2023-02-26T04:33:29;96976.84;;;0.94;81.46
65754;BME280;52488;47.502;18.940;2023-02-26T04:34:33;96967.81;;;0.99;81.11
65754;BME280;52488;47.502;18.940;2023-02-26T04:35:36;96967.50;;;0.95;81.00
65754;BME280;52488;47.502;18.940;2023-02-26T04:36:39;96967.84;;;0.91;81.07
65754;BME280;52488;47.502;18.940;2023-02-26T04:37:42;96968.41;;;0.90;81.31
65754;BME280;52488;47.502;18.940;2023-02-26T04:38:46;96964.62;;;0.85;81.68
65754;BME280;52488;47.502;18.940;2023-02-26T04:39:49;96981.56;;;0.86;81.78
65754;BME280;52488;47.502;18.940;2023-02-26T04:40:52;96983.72;;;0.87;81.71
65754;BME280;52488;47.502;18.940;2023-02-26T04:41:55;96983.72;;;0.87;81.79
65754;BME280;52488;47.502;18.940;2023-02-26T04:42:58;96987.50;;;0.92;81.74
65754;BME280;52488;47.502;18.940;2023-02-26T04:44:01;96989.28;;;0.97;81.37
65754;BME280;52488;47.502;18.940;2023-02-26T04:45:04;96993.06;;;0.94;81.38
65754;BME280;52488;47.502;18.940;2023-02-26T04:46:07;96995.25;;;0.95;81.33
65754;BME280;52488;47.502;18.940;2023-02-26T04:47:10;97000.31;;;0.91;81.28
65754;BME280;52488;47.502;18.940;2023-02-26T04:48:14;97001.56;;;0.90;81.38
65754;BME280;52488;47.502;18.940;2023-02-26T04:49:18;96994.53;;;0.95;81.25
65754;BME280;52488;47.502;18.940;2023-02-26T04:50:21;96996.13;;;0.98;81.09
65754;BME280;52488;47.502;18.940;2023-02-26T04:51:24;96997.25;;;0.95;81.19
65754;BME280;52488;47.502;18.940;2023-02-26T04:52:27;96985.34;;;0.90;81.42
65754;BME280;52488;47.502;18.940;2023-02-26T04:53:30;96979.75;;;0.96;81.09
65754;BME280;52488;47.502;18.940;2023-02-26T04:54:33;96987.34;;;0.90;81.31
65754;BME280;52488;47.502;18.940;2023-02-26T04:55:36;96986.41;;;0.95;81.19
65754;BME280;52488;47.502;18.940;2023-02-26T04:56:39;96978.66;;;0.91;81.20
65754;BME280;52488;47.502;18.940;2023-02-26T04:57:43;96976.88;;;0.86;81.51
65754;BME280;52488;47.502;18.940;2023-02-26T04:58:46;96979.75;;;0.96;81.27
65754;BME280;52488;47.502;18.940;2023-02-26T04:59:49;96993.28;;;0.96;81.06
65754;BME280;52488;47.502;18.940;2023-02-26T05:00:52;96993.78;;;0.94;80.92
65754;BME280;52488;47.502;18.940;2023-02-26T05:01:58;96983.72;;;0.87;81.28
65754;BME280;52488;47.502;18.940;2023-02-26T05:03:01;96996.34;;;0.85;81.54
65754;BME280;52488;47.502;18.940;2023-02-26T05:04:04;96990.41;;;0.86;81.69
65754;BME280;52488;47.502;18.940;2023-02-26T05:05:07;96984.25;;;0.86;81.77
65754;BME280;52488;47.502;18.940;2023-02-26T05:06:10;96987.53;;;0.84;81.87
65754;BME280;52488;47.502;18.940;2023-02-26T05:07:13;96979.03;;;0.80;82.00
65754;BME280;52488;47.502;18.940;2023-02-26T05:08:16;96983.53;;;0.77;82.20
65754;BME280;52488;47.502;18.940;2023-02-26T05:09:19;96978.34;;;0.79;82.14
65754;BME280;52488;47.502;18.940;2023-02-26T05:10:23;96978.88;;;0.78;82.16
65754;BME280;52488;47.502;18.940;2023-02-26T05:11:26;96993.13;;;0.78;82.02
65754;BME280;52488;47.502;18.940;2023-02-26T05:12:29;96993.62;;;0.77;82.09
65754;BME280;52488;47.502;18.940;2023-02-26T05:13:32;96988.78;;;0.75;82.20
65754;BME280;52488;47.502;18.940;2023-02-26T05:14:35;96991.31;;;0.73;82.47
65754;BME280;52488;47.502;18.940;2023-02-26T05:15:38;96986.62;;;0.74;82.65
65754;BME280;52488;47.502;18.940;2023-02-26T05:16:41;96981.94;;;0.74;82.65
65754;BME280;52488;47.502;18.940;2023-02-26T05:17:45;96976.88;;;0.71;82.72
65754;BME280;52488;47.502;18.940;2023-02-26T05:18:48;96990.22;;;0.69;82.60
65754;BME280;52488;47.502;18.940;2023-02-26T05:19:52;96987.38;;;0.67;82.62
65754;BME280;52488;47.502;18.940;2023-02-26T05:20:55;96992.03;;;0.66;82.67
65754;BME280;52488;47.502;18.940;2023-02-26T05:21:58;96979.06;;;0.65;82.68
65754;BME280;52488;47.502;18.940;2023-02-26T05:23:01;96978.34;;;0.64;82.67
65754;BME280;52488;47.502;18.940;2023-02-26T05:24:05;96982.31;;;0.63;82.57
65754;BME280;52488;47.502;18.940;2023-02-26T05:25:09;96977.81;;;0.58;82.66
65754;BME280;52488;47.502;18.940;2023-02-26T05:26:14;96995.47;;;0.59;82.89
65754;BME280;52488;47.502;18.940;2023-02-26T05:27:17;96999.97;;;0.57;83.11
65754;BME280;52488;47.502;18.940;2023-02-26T05:28:20;97012.78;;;0.56;83.39
65754;BME280;52488;47.502;18.940;2023-02-26T05:29:23;97015.47;;;0.56;83.46
65754;BME280;52488;47.502;18.940;2023-02-26T05:30:26;97018.19;;;0.56;83.62
65754;BME280;52488;47.502;18.940;2023-02-26T05:31:29;97022.31;;;0.57;83.76
65754;BME280;52488;47.502;18.940;2023-02-26T05:32:32;97023.03;;;0.58;83.89
65754;BME280;52488;47.502;18.940;2023-02-26T05:33:35;97029.53;;;0.62;84.00
65754;BME280;52488;47.502;18.940;2023-02-26T05:34:38;97033.66;;;0.63;84.00
65754;BME280;52488;47.502;18.940;2023-02-26T05:35:41;97041.59;;;0.61;84.00
65754;BME280;52488;47.502;18.940;2023-02-26T05:36:44;97033.66;;;0.63;83.99
65754;BME280;52488;47.502;18.940;2023-02-26T05:37:47;97037.81;;;0.64;83.93
65754;BME280;52488;47.502;18.940;2023-02-26T05:38:51;97043.22;;;0.64;83.90
65754;BME280;52488;47.502;18.940;2023-02-26T05:39:55;97026.81;;;0.62;83.80
65754;BME280;52488;47.502;18.940;2023-02-26T05:40:59;97026.09;;;0.62;83.88
65754;BME280;52488;47.502;18.940;2023-02-26T05:42:03;97020.69;;;0.62;83.99
65754;BME280;52488;47.502;18.940;2023-02-26T05:43:07;97016.19;;;0.64;83.86
65754;BME280;52488;47.502;18.940;2023-02-26T05:44:10;97022.84;;;0.63;83.59
65754;BME280;52488;47.502;18.940;2023-02-26T05:45:13;97029.31;;;0.60;83.53
65754;BME280;52488;47.502;18.940;2023-02-26T05:46:16;97038.16;;;0.61;83.73
65754;BME280;52488;47.502;18.940;2023-02-26T05:47:19;97041.59;;;0.61;84.08
65754;BME280;52488;47.502;18.940;2023-02-26T05:48:22;97041.78;;;0.63;84.18
65754;BME280;52488;47.502;18.940;2023-02-26T05:49:26;97045.75;;;0.62;84.39
65754;BME280;52488;47.502;18.940;2023-02-26T05:50:29;97055.84;;;0.62;84.34
65754;BME280;52488;47.502;18.940;2023-02-26T05:51:32;97056.00;;;0.64;84.20
65754;BME280;52488;47.502;18.940;2023-02-26T05:52:35;97060.69;;;0.63;84.05
65754;BME280;52488;47.502;18.940;2023-02-26T05:53:38;97061.97;;;0.62;84.07
65754;BME280;52488;47.502;18.940;2023-02-26T05:54:41;97057.81;;;0.61;84.17
65754;BME280;52488;47.502;18.940;2023-02-26T05:55:44;97063.41;;;0.63;84.13
65754;BME280;52488;47.502;18.940;2023-02-26T05:56:47;97065.38;;;0.63;84.04
65754;BME280;52488;47.502;18.940;2023-02-26T05:57:50;97066.66;;;0.62;84.05
65754;BME280;52488;47.502;18.940;2023-02-26T05:58:53;97058.72;;;0.64;84.13
65754;BME280;52488;47.502;18.940;2023-02-26T05:59:56;97050.25;;;0.67;83.87
65754;BME280;52488;47.502;18.940;2023-02-26T06:00:59;97054.75;;;0.65;83.68
65754;BME280;52488;47.502;18.940;2023-02-26T06:02:03;97053.84;;;0.62;83.80
65754;BME280;52488;47.502;18.940;2023-02-26T06:03:06;97056.56;;;0.62;83.83
65754;BME280;52488;47.502;18.940;2023-02-26T06:04:09;97059.78;;;0.61;83.84
65754;BME280;52488;47.502;18.940;2023-02-26T06:05:12;97066.09;;;0.63;83.92
65754;BME280;52488;47.502;18.940;2023-02-26T06:06:15;97077.81;;;0.66;83.94
65754;BME280;52488;47.502;18.940;2023-02-26T06:07:20;97066.63;;;0.69;83.95
65754;BME280;52488;47.502;18.940;2023-02-26T06:08:23;97065.75;;;0.67;84.06
65754;BME280;52488;47.502;18.940;2023-02-26T06:09:26;97060.50;;;0.69;84.15
65754;BME280;52488;47.502;18.940;2023-02-26T06:10:29;97057.81;;;0.69;84.11
65754;BME280;52488;47.502;18.940;2023-02-26T06:11:32;97051.13;;;0.70;84.22
65754;BME280;52488;47.502;18.940;2023-02-26T06:12:35;97059.78;;;0.68;84.21
65754;BME280;52488;47.502;18.940;2023-02-26T06:13:38;97059.06;;;0.68;84.33
65754;BME280;52488;47.502;18.940;2023-02-26T06:14:41;97068.78;;;0.71;84.13
65754;BME280;52488;47.502;18.940;2023-02-26T06:15:44;97074.03;;;0.69;84.23
65754;BME280;52488;47.502;18.940;2023-02-26T06:16:47;97073.47;;;0.70;84.29
65754;BME280;52488;47.502;18.940;2023-02-26T06:17:50;97076.00;;;0.76;84.19
65754;BME280;52488;47.502;18.940;2023-02-26T06:18:54;97067.53;;;0.79;84.11
65754;BME280;52488;47.502;18.940;2023-02-26T06:19:57;97074.75;;;0.77;84.27
65754;BME280;52488;47.502;18.940;2023-02-26T06:21:00;97079.06;;;0.80;84.26
65754;BME280;52488;47.502;18.940;2023-02-26T06:22:04;97078.34;;;0.79;84.36
65754;BME280;52488;47.502;18.940;2023-02-26T06:23:07;97087.34;;;0.82;84.36
65754;BME280;52488;47.502;18.940;2023-02-26T06:24:10;97088.28;;;0.85;84.31
65754;BME280;52488;47.502;18.940;2023-02-26T06:25:13;97092.59;;;0.88;84.00
65754;BME280;52488;47.502;18.940;2023-02-26T06:26:16;97094.94;;;0.84;83.82
65754;BME280;52488;47.502;18.940;2023-02-26T06:27:19;97100.00;;;0.79;83.87
65754;BME280;52488;47.502;18.940;2023-02-26T06:28:22;97094.38;;;0.77;84.06
65754;BME280;52488;47.502;18.940;2023-02-26T06:29:26;97092.94;;;0.76;84.13
65754;BME280;52488;47.502;18.940;2023-02-26T06:30:29;97090.25;;;0.76;84.12
65754;BME280;52488;47.502;18.940;2023-02-26T06:31:32;97088.81;;;0.75;84.27
65754;BME280;52488;47.502;18.940;2023-02-26T06:32:35;97088.44;;;0.79;84.28
65754;BME280;52488;47.502;18.940;2023-02-26T06:33:38;97091.31;;;0.81;84.20
65754;BME280;52488;47.502;18.940;2023-02-26T06:34:41;97091.50;;;0.83;84.31
65754;BME280;52488;47.502;18.940;2023-02-26T06:35:44;97083.03;;;0.87;84.39
65754;BME280;52488;47.502;18.940;2023-02-26T06:36:47;97079.97;;;0.90;84.55
65754;BME280;52488;47.502;18.940;2023-02-26T06:37:50;97071.69;;;0.96;84.46
65754;BME280;52488;47.502;18.940;2023-02-26T06:38:54;97083.59;;;1.00;84.22
65754;BME280;52488;47.502;18.940;2023-02-26T06:39:58;97078.16;;;1.08;83.98
65754;BME280;52488;47.502;18.940;2023-02-26T06:41:01;97085.56;;;1.08;84.00